Time;durP1;ratioP1;P1;durP2;ratioP2;P2;SDS_P1;SDS_P2;PMS_P1;PMS_P2;Temp;Humidity;BMP_temperature;BMP_pressure;BME280_temperature;BME280_humidity;BME280_pressure;Samples;Min_cycle;Max_cycle;Signal;HPM_P1;HPM_P2
2021/06/27 00:01:53;;;;;;;17.27;13.10;;;;;;;17.57;64.45;100671.59;10350473;28;20215;-76
2021/06/27 00:06:56;;;;;;;15.88;12.18;;;;;;;17.57;64.46;100663.44;10331249;28;20223;-77
2021/06/27 00:12:00;;;;;;;16.83;12.07;;;;;;;17.40;64.87;100662.53;10362406;28;20570;-76
2021/06/27 00:17:05;;;;;;;17.05;12.80;;;;;;;17.32;64.95;100661.66;10343347;28;20714;-77
2021/06/27 00:22:08;;;;;;;17.88;13.15;;;;;;;17.37;64.89;100653.88;10344020;28;20211;-77
2021/06/27 00:27:11;;;;;;;18.25;12.80;;;;;;;17.33;65.14;100669.59;10346543;28;20215;-77
2021/06/27 00:32:16;;;;;;;15.13;12.68;;;;;;;17.01;65.95;100662.13;10347043;28;20257;-77
2021/06/27 00:37:19;;;;;;;16.77;11.25;;;;;;;16.97;66.40;100660.72;10346326;28;20219;-77
2021/06/27 00:42:22;;;;;;;17.48;12.38;;;;;;;16.93;66.32;100659.34;10347189;28;20322;-77
2021/06/27 00:47:30;;;;;;;17.05;12.48;;;;;;;16.86;66.70;100656.41;10310093;28;1086420;-77
2021/06/27 00:52:33;;;;;;;18.83;13.18;;;;;;;16.93;66.75;100656.63;10349851;28;20193;-77
2021/06/27 00:57:37;;;;;;;17.02;12.15;;;;;;;17.10;65.90;100655.72;10350740;28;20687;-77
2021/06/27 01:02:45;;;;;;;16.15;12.10;;;;;;;16.99;66.20;100647.84;10355661;28;20215;-77
2021/06/27 01:07:49;;;;;;;15.98;12.52;;;;;;;16.88;66.36;100646.25;10355294;28;20609;-77
2021/06/27 01:12:52;;;;;;;17.83;13.00;;;;;;;16.81;66.43;100656.91;10355161;28;20203;-77
2021/06/27 01:17:58;;;;;;;16.10;12.20;;;;;;;16.63;66.85;100645.22;10353659;28;20620;-77
2021/06/27 01:23:05;;;;;;;16.63;12.90;;;;;;;16.48;67.38;100649.50;10352257;28;20301;-77
2021/06/27 01:28:09;;;;;;;17.38;12.68;;;;;;;16.26;67.97;100646.25;10351478;28;20598;-76
2021/06/27 01:33:15;;;;;;;18.05;13.30;;;;;;;16.23;68.25;100651.94;10351747;28;20207;-77
2021/06/27 01:38:21;;;;;;;18.00;12.90;;;;;;;16.19;68.65;100655.16;10351818;28;20219;-76
2021/06/27 01:43:24;;;;;;;18.92;13.27;;;;;;;16.18;68.36;100658.84;10351538;28;20219;-76
2021/06/27 01:48:28;;;;;;;19.45;13.70;;;;;;;16.09;68.77;100656.06;10351712;28;20314;-77
2021/06/27 01:53:35;;;;;;;17.38;12.98;;;;;;;16.05;68.50;100654.66;10352222;28;20808;-75
2021/06/27 01:58:40;;;;;;;18.77;12.63;;;;;;;16.10;68.32;100652.34;10351029;28;20215;-75
2021/06/27 02:03:44;;;;;;;16.63;12.30;;;;;;;16.02;68.46;100652.28;10351112;28;20225;-75
2021/06/27 02:08:49;;;;;;;17.33;13.25;;;;;;;15.88;68.94;100658.22;10349857;28;20218;-75
2021/06/27 02:13:53;;;;;;;18.17;12.77;;;;;;;15.83;69.14;100664.09;10350815;28;20184;-75
2021/06/27 02:18:56;;;;;;;18.38;12.38;;;;;;;15.73;69.56;100652.44;10350512;28;20307;-75
2021/06/27 02:24:02;;;;;;;20.33;14.00;;;;;;;15.64;69.69;100645.25;10350168;28;20215;-77
2021/06/27 02:29:06;;;;;;;19.38;13.68;;;;;;;15.65;69.32;100634.25;10349749;28;20223;-76
2021/06/27 02:34:08;;;;;;;19.45;13.20;;;;;;;15.62;68.64;100633.69;10350108;28;20660;-76
2021/06/27 02:39:13;;;;;;;20.05;14.35;;;;;;;15.64;68.68;100634.41;10350452;28;20230;-75
2021/06/27 02:44:16;;;;;;;22.05;14.63;;;;;;;15.61;69.02;100634.72;10349604;28;20222;-76
2021/06/27 02:49:22;;;;;;;22.55;15.30;;;;;;;15.76;69.73;100626.91;10348669;28;20249;-78
2021/06/27 02:54:26;;;;;;;19.92;14.10;;;;;;;15.87;68.98;100624.84;10349136;28;20683;-78
2021/06/27 02:59:29;;;;;;;20.55;14.57;;;;;;;15.72;68.84;100631.78;10351275;28;20231;-78
2021/06/27 03:04:32;;;;;;;21.30;14.95;;;;;;;15.70;69.80;100636.50;10334674;28;20738;-77
2021/06/27 03:09:36;;;;;;;18.27;14.30;;;;;;;15.78;69.19;100639.31;10348885;28;20210;-78
2021/06/27 03:14:39;;;;;;;23.55;15.45;;;;;;;15.87;69.50;100627.53;10365571;28;20202;-77
2021/06/27 03:19:42;;;;;;;20.77;14.40;;;;;;;15.90;69.02;100627.22;10352724;28;20233;-78
2021/06/27 03:24:47;;;;;;;20.27;14.57;;;;;;;15.97;68.99;100627.50;10351760;28;20211;-78
2021/06/27 03:29:50;;;;;;;21.92;14.65;;;;;;;15.92;69.07;100629.81;10352176;28;20755;-77
2021/06/27 03:34:53;;;;;;;18.17;13.50;;;;;;;15.93;69.08;100636.91;10336219;28;20211;-78
2021/06/27 03:39:57;;;;;;;22.65;14.95;;;;;;;15.75;69.14;100636.91;10353473;28;20340;-78
2021/06/27 03:45:00;;;;;;;20.85;14.30;;;;;;;15.64;69.61;100634.41;10353243;28;20226;-77
2021/06/27 03:50:04;;;;;;;22.35;15.27;;;;;;;15.53;69.71;100630.03;10359375;28;20263;-78
2021/06/27 03:55:10;;;;;;;20.83;13.35;;;;;;;15.47;69.74;100630.66;10352292;28;20190;-77
2021/06/27 04:00:14;;;;;;;23.67;14.27;;;;;;;15.47;69.57;100633.38;10347487;28;20202;-78
2021/06/27 04:05:16;;;;;;;17.10;11.82;;;;;;;15.59;68.91;100631.28;10350290;28;20215;-78
2021/06/27 04:10:21;;;;;;;18.92;12.55;;;;;;;15.61;69.14;100630.16;10353508;28;20198;-77
2021/06/27 04:15:24;;;;;;;17.83;11.77;;;;;;;15.64;69.10;100629.84;10351835;28;20220;-76
2021/06/27 04:20:27;;;;;;;18.63;13.35;;;;;;;15.73;69.24;100635.34;10346795;28;20194;-77
2021/06/27 04:25:33;;;;;;;22.15;14.07;;;;;;;15.81;68.89;100622.75;10345889;28;20238;-76
2021/06/27 04:30:37;;;;;;;21.25;14.13;;;;;;;15.91;68.79;100622.69;10349644;28;20222;-76
2021/06/27 04:35:41;;;;;;;22.48;13.85;;;;;;;15.97;68.41;100613.09;10348986;28;20207;-76
2021/06/27 04:40:46;;;;;;;20.20;14.38;;;;;;;16.05;67.83;100605.91;10346721;28;20214;-77
2021/06/27 04:45:49;;;;;;;20.30;13.82;;;;;;;16.06;67.83;100610.28;10345853;28;20215;-77
2021/06/27 04:50:52;;;;;;;20.85;15.43;;;;;;;16.02;67.96;100603.50;10346267;28;20676;-76
2021/06/27 04:55:58;;;;;;;23.83;15.05;;;;;;;16.06;68.45;100599.47;10349780;28;20212;-76
2021/06/27 05:01:01;;;;;;;22.65;15.55;;;;;;;16.17;68.36;100606.50;10347019;28;20212;-76
2021/06/27 05:06:05;;;;;;;24.40;14.73;;;;;;;16.28;68.28;100592.75;10345783;28;20215;-77
2021/06/27 05:11:09;;;;;;;35.92;15.65;;;;;;;16.39;68.22;100594.34;10348329;28;20182;-77
2021/06/27 05:16:12;;;;;;;20.08;15.13;;;;;;;16.48;67.38;100590.72;10346088;28;20216;-77
2021/06/27 05:21:15;;;;;;;19.05;14.13;;;;;;;16.61;67.89;100584.84;10344942;28;20578;-77
2021/06/27 05:26:19;;;;;;;21.65;15.07;;;;;;;16.76;67.30;100582.44;10374767;28;20222;-74
2021/06/27 05:31:22;;;;;;;20.23;15.07;;;;;;;16.87;66.66;100582.16;10385841;28;20199;-75
2021/06/27 05:36:25;;;;;;;18.40;13.80;;;;;;;17.11;67.09;100586.00;10385921;28;20665;-75
2021/06/27 05:41:29;;;;;;;19.52;14.20;;;;;;;17.29;65.87;100591.38;10385343;28;20215;-75
2021/06/27 05:46:32;;;;;;;19.65;13.85;;;;;;;17.49;66.11;100595.53;10391594;28;20313;-77
2021/06/27 05:51:37;;;;;;;18.77;13.50;;;;;;;17.74;65.23;100590.16;10398584;28;20191;-76
2021/06/27 05:56:41;;;;;;;17.75;13.10;;;;;;;17.95;63.68;100587.84;10391304;28;20602;-77
2021/06/27 06:01:44;;;;;;;15.35;11.70;;;;;;;18.18;63.23;100595.34;10392483;28;20223;-77
2021/06/27 06:06:47;;;;;;;15.02;12.15;;;;;;;18.39;62.52;100584.81;10392337;28;20318;-76
2021/06/27 06:11:52;;;;;;;14.77;11.32;;;;;;;18.67;61.98;100579.00;10392514;28;20187;-77
2021/06/27 06:16:55;;;;;;;15.77;11.63;;;;;;;18.97;61.69;100586.47;10392041;28;20266;-76
2021/06/27 06:21:58;;;;;;;15.23;11.00;;;;;;;19.34;59.61;100587.69;10349466;28;20265;-77
2021/06/27 06:27:02;;;;;;;13.43;10.82;;;;;;;19.66;60.11;100584.00;10350273;28;20270;-77
2021/06/27 06:32:06;;;;;;;12.73;10.20;;;;;;;19.99;58.02;100583.75;10349224;28;20227;-75
2021/06/27 06:37:09;;;;;;;13.48;9.15;;;;;;;20.25;56.97;100579.84;10350683;28;20211;-75
2021/06/27 06:42:14;;;;;;;11.25;8.63;;;;;;;20.38;56.06;100577.38;10348993;28;20215;-77
2021/06/27 06:47:17;;;;;;;11.52;9.13;;;;;;;20.38;55.20;100580.09;10349674;28;20668;-77
2021/06/27 06:52:20;;;;;;;11.25;8.82;;;;;;;20.68;53.70;100594.66;10349778;28;20194;-76
2021/06/27 06:57:24;;;;;;;11.30;8.70;;;;;;;20.68;54.46;100599.25;10346995;28;20696;-76
2021/06/27 07:02:27;;;;;;;9.77;8.18;;;;;;;21.08;53.64;100586.25;10360344;28;20222;-76
2021/06/27 07:07:30;;;;;;;9.60;8.15;;;;;;;21.11;52.68;100594.91;10358378;28;20284;-77
2021/06/27 07:12:34;;;;;;;11.25;8.55;;;;;;;21.31;51.90;100583.38;10352444;28;20191;-76
2021/06/27 07:17:38;;;;;;;9.18;7.30;;;;;;;21.66;51.74;100573.53;10349632;28;20211;-78
2021/06/27 07:22:42;;;;;;;10.98;7.43;;;;;;;21.97;50.99;100576.00;10362635;28;20226;-77
2021/06/27 07:27:47;;;;;;;8.23;6.50;;;;;;;22.10;49.20;100580.75;10371049;28;20644;-77
2021/06/27 07:32:50;;;;;;;8.80;6.22;;;;;;;22.02;50.51;100589.09;10355692;28;20206;-76
2021/06/27 07:37:53;;;;;;;10.45;6.13;;;;;;;22.32;49.28;100576.09;10366922;28;20226;-76
2021/06/27 07:42:57;;;;;;;7.90;6.38;;;;;;;22.98;48.35;100575.78;10348462;28;20211;-76
2021/06/27 07:48:00;;;;;;;8.13;6.15;;;;;;;23.35;46.85;100584.66;10348564;28;20596;-76
2021/06/27 07:53:03;;;;;;;6.97;6.28;;;;;;;23.75;45.70;100582.94;10348872;28;20188;-76
2021/06/27 07:58:08;;;;;;;6.95;5.63;;;;;;;23.79;45.45;100576.00;10349222;28;20227;-76
2021/06/27 08:03:10;;;;;;;6.18;5.57;;;;;;;23.53;46.15;100582.22;10379789;28;20577;-76
2021/06/27 08:08:15;;;;;;;7.90;5.97;;;;;;;23.51;46.82;100583.47;10368203;28;20229;-76
2021/06/27 08:13:19;;;;;;;7.53;5.78;;;;;;;23.70;46.23;100585.44;10346440;28;20192;-76
2021/06/27 08:18:22;;;;;;;6.20;5.15;;;;;;;23.95;47.08;100580.25;10345892;28;20310;-74
2021/06/27 08:23:25;;;;;;;5.97;5.38;;;;;;;24.78;45.54;100587.28;10345138;28;20215;-76
2021/06/27 08:28:29;;;;;;;6.05;5.45;;;;;;;26.17;39.61;100583.19;10344046;28;20223;-76
2021/06/27 08:33:32;;;;;;;6.90;4.70;;;;;;;25.59;41.36;100584.97;10345862;28;20810;-76
2021/06/27 08:38:35;;;;;;;5.50;4.90;;;;;;;25.38;40.06;100585.25;10343882;28;20610;-76
2021/06/27 08:43:42;;;;;;;5.78;4.45;;;;;;;25.32;40.89;100577.91;10345900;28;20227;-77
2021/06/27 08:48:45;;;;;;;5.45;4.95;;;;;;;25.06;41.54;100579.66;10405478;23;20226;-74
2021/06/27 08:53:52;;;;;;;7.65;5.57;;;;;;;25.54;41.72;100573.78;10389599;28;20194;-73
2021/06/27 08:58:56;;;;;;;5.78;5.18;;;;;;;25.93;40.12;100576.56;10363421;28;20218;-73
2021/06/27 09:04:00;;;;;;;5.70;5.05;;;;;;;25.96;40.58;100573.34;10404629;28;20638;-73
2021/06/27 09:09:15;;;;;;;6.72;4.95;;;;;;;26.04;38.68;100573.94;10408986;28;20257;-73
2021/06/27 09:14:35;;;;;;;5.28;4.78;;;;;;;26.33;37.62;100577.16;10370889;28;20664;-71
2021/06/27 09:20:08;;;;;;;5.00;4.60;;;;;;;26.74;37.99;100570.19;10391116;28;20218;-73
2021/06/27 09:25:20;;;;;;;5.15;4.65;;;;;;;26.99;36.65;100564.69;10395094;28;20211;-74
2021/06/27 09:30:26;;;;;;;4.68;4.28;;;;;;;27.15;37.17;100558.56;10400597;28;20237;-72
2021/06/27 09:35:41;;;;;;;6.93;5.25;;;;;;;27.57;37.11;100564.22;10397889;28;20236;-72
2021/06/27 09:40:44;;;;;;;5.50;5.00;;;;;;;27.48;36.28;100562.88;10407216;28;20222;-73
2021/06/27 09:45:51;;;;;;;5.97;4.65;;;;;;;28.05;34.95;100544.00;10413609;28;20217;-75
2021/06/27 09:50:55;;;;;;;4.95;4.25;;;;;;;27.88;34.32;100545.72;10438139;28;20243;-73
2021/06/27 09:55:59;;;;;;;6.80;4.20;;;;;;;27.87;34.44;100537.69;10419951;28;20197;-73
2021/06/27 10:01:18;;;;;;;4.65;4.25;;;;;;;27.83;33.92;100537.31;10434068;28;20200;-73
2021/06/27 10:06:22;;;;;;;4.75;4.30;;;;;;;28.66;34.64;100525.38;10435150;28;20305;-73
2021/06/27 10:11:25;;;;;;;4.95;4.53;;;;;;;29.42;32.68;100522.56;10435152;28;20202;-72
2021/06/27 10:16:33;;;;;;;4.82;4.22;;;;;;;29.49;30.90;100522.44;10434489;28;20220;-73
2021/06/27 10:21:36;;;;;;;4.15;3.78;;;;;;;29.35;31.29;100514.44;10416764;28;20576;-73
2021/06/27 10:26:40;;;;;;;4.28;3.70;;;;;;;29.22;28.39;100509.19;10416052;28;20233;-72
2021/06/27 10:31:45;;;;;;;4.47;4.07;;;;;;;29.55;30.63;100499.31;10415657;28;20206;-71
2021/06/27 10:36:51;;;;;;;5.28;4.78;;;;;;;29.73;30.17;100504.69;10429310;28;20214;-71
2021/06/27 10:41:59;;;;;;;5.85;4.32;;;;;;;29.79;30.02;100500.91;10426695;28;20198;-71
2021/06/27 10:47:04;;;;;;;6.07;4.68;;;;;;;29.83;30.28;100504.00;10431239;28;20233;-72
2021/06/27 10:52:08;;;;;;;5.22;4.70;;;;;;;30.12;30.84;100509.50;10416316;28;20217;-72
2021/06/27 10:57:12;;;;;;;4.63;4.22;;;;;;;30.56;30.08;100502.19;10431368;28;20233;-72
2021/06/27 11:02:32;;;;;;;4.97;4.47;;;;;;;30.26;30.12;100513.63;10415423;28;20217;-72
2021/06/27 11:07:56;;;;;;;5.10;4.60;;;;;;;30.60;28.42;100506.09;10382692;28;20218;-73
2021/06/27 11:13:14;;;;;;;5.38;4.35;;;;;;;30.25;30.45;100498.94;10353350;28;20202;-73
2021/06/27 11:18:30;;;;;;;5.00;4.60;;;;;;;30.91;28.17;100509.34;10412766;28;20249;-73
2021/06/27 11:23:54;;;;;;;4.93;4.47;;;;;;;30.15;29.79;100497.94;10411797;28;20271;-74
2021/06/27 11:28:57;;;;;;;5.72;4.55;;;;;;;30.12;30.25;100492.88;10436762;28;20209;-73
2021/06/27 11:34:28;;;;;;;6.03;4.60;;;;;;;30.47;30.80;100495.38;10437775;28;20186;-73
2021/06/27 11:39:47;;;;;;;5.03;4.53;;;;;;;31.24;29.17;100490.91;10437778;28;20319;-73
2021/06/27 11:45:33;;;;;;;4.28;3.90;;;;;;;30.43;29.74;100472.88;10423458;28;20605;-73
2021/06/27 11:50:41;;;;;;;4.72;4.32;;;;;;;30.56;29.81;100479.16;10387471;28;20783;-72
2021/06/27 11:55:47;;;;;;;4.70;4.30;;;;;;;31.30;29.78;100481.56;10410877;28;20647;-72
2021/06/27 12:00:51;;;;;;;4.47;4.07;;;;;;;31.58;29.14;100477.69;10408191;28;20197;-72
2021/06/27 12:05:57;;;;;;;5.70;3.83;;;;;;;32.18;28.13;100487.72;10408164;28;20584;-72
2021/06/27 12:11:03;;;;;;;4.32;3.90;;;;;;;32.35;27.79;100482.00;10406056;28;20197;-73
2021/06/27 12:16:06;;;;;;;4.45;4.05;;;;;;;32.67;27.23;100470.84;10401536;28;20305;-72
2021/06/27 12:21:13;;;;;;;4.63;4.22;;;;;;;33.03;27.62;100467.38;10398746;28;20252;-72
2021/06/27 12:26:18;;;;;;;4.10;3.72;;;;;;;32.49;24.65;100462.91;10392781;28;20218;-73
2021/06/27 12:31:23;;;;;;;4.07;3.78;;;;;;;32.26;26.29;100453.06;10390214;28;20605;-72
2021/06/27 12:36:30;;;;;;;4.18;3.78;;;;;;;32.89;25.59;100456.75;10371939;28;20244;-73
2021/06/27 12:41:35;;;;;;;4.70;4.30;;;;;;;32.72;26.64;100447.78;10389558;28;20216;-75
2021/06/27 12:46:40;;;;;;;4.00;3.42;;;;;;;32.86;24.92;100437.00;10389300;28;20218;-72
2021/06/27 12:51:47;;;;;;;4.43;3.72;;;;;;;32.56;24.36;100440.44;10388797;28;20248;-73
2021/06/27 12:56:54;;;;;;;4.75;3.50;;;;;;;32.69;24.02;100428.00;10389453;28;20214;-73
2021/06/27 13:02:03;;;;;;;5.75;3.50;;;;;;;33.15;25.33;100431.00;10383508;28;20217;-73
2021/06/27 13:07:09;;;;;;;3.70;3.40;;;;;;;33.14;23.83;100424.59;10389121;28;20218;-74
2021/06/27 13:12:15;;;;;;;3.72;3.42;;;;;;;33.02;24.75;100424.81;10387365;28;20562;-74
2021/06/27 13:17:20;;;;;;;4.45;3.65;;;;;;;32.56;24.84;100413.47;10387014;28;20210;-74
2021/06/27 13:22:25;;;;;;;3.83;3.53;;;;;;;32.77;24.92;100414.41;10387335;28;20607;-74
2021/06/27 13:27:31;;;;;;;4.18;3.78;;;;;;;33.63;24.16;100406.63;10386213;28;20225;-73
2021/06/27 13:32:34;;;;;;;4.45;3.80;;;;;;;34.08;24.77;100397.34;10386658;28;20186;-72
2021/06/27 13:37:54;;;;;;;4.25;3.95;;;;;;;34.67;23.48;100397.78;10383350;28;20212;-72
2021/06/27 13:42:58;;;;;;;5.03;3.88;;;;;;;34.12;23.92;100401.31;10350426;28;20237;-73
2021/06/27 13:48:02;;;;;;;3.40;3.20;;;;;;;33.50;24.84;100403.22;10344671;28;20218;-74
2021/06/27 13:53:06;;;;;;;4.10;3.72;;;;;;;33.55;23.95;100396.81;10328573;28;20211;-73
2021/06/27 13:58:09;;;;;;;4.10;3.80;;;;;;;33.93;24.59;100394.63;10346185;28;20210;-73
2021/06/27 14:03:12;;;;;;;3.92;3.63;;;;;;;34.24;23.20;100386.22;10344426;28;20229;-73
2021/06/27 14:08:17;;;;;;;4.15;3.80;;;;;;;34.14;23.93;100385.13;10351029;28;20222;-73
2021/06/27 14:13:19;;;;;;;4.15;3.83;;;;;;;34.68;23.25;100374.38;10352167;28;20579;-73
2021/06/27 14:18:23;;;;;;;4.57;4.10;;;;;;;34.72;24.56;100367.09;10352833;28;20206;-73
2021/06/27 14:23:27;;;;;;;3.78;3.47;;;;;;;34.84;23.36;100367.59;10352623;28;20199;-73
2021/06/27 14:28:30;;;;;;;4.45;4.15;;;;;;;33.57;25.34;100369.53;10350834;28;20226;-73
2021/06/27 14:33:33;;;;;;;5.07;4.20;;;;;;;33.14;25.28;100355.03;10383824;28;20273;-73
2021/06/27 14:38:38;;;;;;;5.30;4.20;;;;;;;33.83;24.57;100358.41;10390445;28;20292;-73
2021/06/27 14:43:41;;;;;;;6.65;5.32;;;;;;;34.11;24.13;100346.66;10391460;28;20201;-73
2021/06/27 14:48:44;;;;;;;5.50;4.78;;;;;;;34.61;24.30;100338.41;10397054;28;20210;-73
2021/06/27 14:53:48;;;;;;;4.82;4.40;;;;;;;34.71;24.02;100332.78;10415434;28;20202;-74
2021/06/27 14:59:12;;;;;;;4.97;4.22;;;;;;;33.87;23.99;100331.66;10427608;28;20209;-73
2021/06/27 15:04:14;;;;;;;4.35;4.05;;;;;;;33.86;25.25;100328.03;10426798;28;20195;-73
2021/06/27 15:09:19;;;;;;;4.57;4.13;;;;;;;33.00;25.31;100323.28;10412534;28;20670;-74
2021/06/27 15:14:23;;;;;;;4.65;4.25;;;;;;;33.32;24.73;100312.75;10406439;28;20232;-73
2021/06/27 15:19:27;;;;;;;3.90;3.60;;;;;;;33.50;25.87;100300.22;10429749;28;20252;-73
2021/06/27 15:24:31;;;;;;;4.30;3.63;;;;;;;33.33;25.36;100319.16;10406133;28;20223;-75
2021/06/27 15:29:34;;;;;;;5.63;4.38;;;;;;;33.04;24.58;100308.50;10349918;28;20586;-74
2021/06/27 15:34:37;;;;;;;6.05;4.03;;;;;;;33.17;24.30;100311.91;10349111;28;20199;-74
2021/06/27 15:39:41;;;;;;;4.32;3.92;;;;;;;32.95;24.62;100301.00;10350092;28;20215;-74
2021/06/27 15:44:44;;;;;;;4.55;4.15;;;;;;;32.61;25.93;100285.63;10348627;28;20215;-74
2021/06/27 15:49:47;;;;;;;4.40;4.00;;;;;;;33.52;24.93;100277.66;10346441;28;20738;-74
2021/06/27 15:54:51;;;;;;;4.32;3.92;;;;;;;33.31;24.47;100276.84;10348220;28;20363;-73
2021/06/27 15:59:54;;;;;;;4.43;4.10;;;;;;;32.97;24.87;100279.28;10381214;28;20682;-74
2021/06/27 16:04:57;;;;;;;4.50;4.10;;;;;;;32.32;26.11;100281.63;10398818;28;20209;-73
2021/06/27 16:10:05;;;;;;;4.40;3.97;;;;;;;31.60;26.90;100281.19;10389026;28;20214;-73
2021/06/27 16:15:11;;;;;;;4.60;4.15;;;;;;;31.95;27.12;100271.41;10371384;28;20324;-74
2021/06/27 16:20:17;;;;;;;4.80;4.10;;;;;;;31.65;27.67;100267.34;10388830;28;20717;-74
2021/06/27 16:25:21;;;;;;;4.30;3.90;;;;;;;32.48;26.54;100255.56;10388704;28;20234;-74
2021/06/27 16:30:24;;;;;;;4.47;4.07;;;;;;;34.31;25.16;100253.81;10392777;28;20659;-74
2021/06/27 16:35:27;;;;;;;4.40;4.10;;;;;;;38.69;21.15;100235.19;10388432;28;20194;-74
2021/06/27 16:40:32;;;;;;;4.68;4.28;;;;;;;40.66;18.82;100246.06;10370314;28;20225;-73
2021/06/27 16:45:51;;;;;;;4.60;4.20;;;;;;;41.03;18.62;100242.91;10386986;28;20237;-74
2021/06/27 16:50:56;;;;;;;4.85;4.43;;;;;;;39.95;19.75;100243.41;10387401;28;20225;-74
2021/06/27 16:56:03;;;;;;;4.45;4.07;;;;;;;37.73;21.70;100239.72;10387171;28;20670;-74
2021/06/27 17:01:06;;;;;;;5.20;4.70;;;;;;;37.26;21.86;100245.34;10394684;28;20221;-74
2021/06/27 17:06:10;;;;;;;4.95;4.50;;;;;;;36.22;22.88;100245.47;10390498;28;20222;-74
2021/06/27 17:11:15;;;;;;;5.03;4.63;;;;;;;34.56;24.90;100252.84;10386252;28;20190;-74
2021/06/27 17:16:18;;;;;;;5.05;4.65;;;;;;;32.92;27.04;100246.75;10385778;28;20209;-74
2021/06/27 17:21:22;;;;;;;4.95;4.55;;;;;;;32.04;27.97;100242.03;10390636;28;20198;-74
2021/06/27 17:26:30;;;;;;;5.40;4.90;;;;;;;30.93;30.10;100237.31;10421850;28;20218;-74
2021/06/27 17:31:33;;;;;;;5.40;4.90;;;;;;;30.58;30.64;100253.31;10427890;28;20274;-74
2021/06/27 17:36:36;;;;;;;5.00;4.50;;;;;;;29.81;31.49;100263.44;10427230;28;20202;-74
2021/06/27 17:41:40;;;;;;;5.40;4.90;;;;;;;29.36;32.64;100269.06;10414775;28;20202;-75
2021/06/27 17:46:43;;;;;;;5.57;5.07;;;;;;;28.59;34.08;100259.41;10434047;28;20228;-74
2021/06/27 17:51:47;;;;;;;5.32;4.82;;;;;;;27.99;35.29;100259.78;10434466;28;20612;-74
2021/06/27 17:56:51;;;;;;;6.10;5.50;;;;;;;27.47;36.59;100256.91;10434317;28;20205;-74
2021/06/27 18:01:55;;;;;;;5.25;4.78;;;;;;;27.08;37.17;100259.25;10434658;28;20293;-74
2021/06/27 18:06:59;;;;;;;6.07;5.47;;;;;;;26.78;37.66;100256.50;10433592;28;20217;-74
2021/06/27 18:12:04;;;;;;;5.43;4.93;;;;;;;26.48;38.35;100262.84;10382406;28;20289;-74
2021/06/27 18:17:07;;;;;;;6.15;4.82;;;;;;;26.36;38.68;100267.47;10392014;28;20206;-74
2021/06/27 18:22:10;;;;;;;6.03;5.43;;;;;;;26.24;39.16;100270.16;10400038;28;20202;-74
2021/06/27 18:27:15;;;;;;;6.20;5.53;;;;;;;26.17;39.24;100278.47;10391664;28;20246;-74
2021/06/27 18:32:18;;;;;;;5.70;5.20;;;;;;;26.04;39.57;100270.38;10392181;28;20194;-74
2021/06/27 18:37:25;;;;;;;6.25;4.70;;;;;;;25.91;39.66;100273.25;10391470;28;20206;-74
2021/06/27 18:42:31;;;;;;;6.25;5.35;;;;;;;25.85;40.05;100280.53;10391742;28;20199;-74
2021/06/27 18:47:34;;;;;;;5.97;5.38;;;;;;;25.71;40.44;100282.56;10390956;28;20699;-74
2021/06/27 18:52:38;;;;;;;5.60;5.10;;;;;;;25.56;40.86;100279.28;10391331;28;20695;-74
2021/06/27 18:57:44;;;;;;;7.60;6.00;;;;;;;25.39;41.05;100285.34;10408281;28;20280;-74
2021/06/27 19:02:47;;;;;;;6.05;5.45;;;;;;;25.24;41.70;100287.63;10407742;28;20195;-74
2021/06/27 19:07:51;;;;;;;5.82;5.22;;;;;;;25.12;42.15;100282.00;10395809;28;20222;-74
2021/06/27 19:12:55;;;;;;;5.90;5.30;;;;;;;25.02;42.16;100283.53;10410388;28;20195;-74
2021/06/27 19:17:58;;;;;;;5.95;5.35;;;;;;;24.92;42.50;100286.75;10408524;28;20214;-74
2021/06/27 19:23:01;;;;;;;5.78;5.15;;;;;;;24.80;43.07;100283.03;10406579;28;20549;-74
2021/06/27 19:28:06;;;;;;;6.30;5.70;;;;;;;24.62;43.73;100278.28;10402534;28;20225;-74
2021/06/27 19:33:09;;;;;;;7.78;5.60;;;;;;;24.50;44.11;100289.13;10389860;28;20218;-75
2021/06/27 19:38:12;;;;;;;6.97;5.72;;;;;;;24.43;44.23;100296.53;10389699;28;20214;-75
2021/06/27 19:43:18;;;;;;;5.78;5.28;;;;;;;24.28;44.74;100297.59;10389869;28;20225;-75
2021/06/27 19:48:21;;;;;;;6.75;5.90;;;;;;;24.28;44.24;100294.88;10389271;28;20233;-75
2021/06/27 19:53:24;;;;;;;6.47;5.85;;;;;;;24.17;44.80;100306.53;10389836;28;20273;-76
2021/06/27 19:58:29;;;;;;;6.70;6.00;;;;;;;24.04;45.15;100303.81;10390543;28;20221;-75
2021/06/27 20:03:32;;;;;;;6.32;5.72;;;;;;;23.98;44.90;100300.03;10402617;28;20202;-76
2021/06/27 20:08:36;;;;;;;6.28;5.40;;;;;;;23.94;45.08;100306.97;10402524;28;20233;-76
2021/06/27 20:13:40;;;;;;;6.30;5.10;;;;;;;23.85;45.23;100311.03;10372147;28;20205;-76
2021/06/27 20:18:44;;;;;;;5.95;5.35;;;;;;;23.76;45.16;100313.16;10388832;28;20238;-76
2021/06/27 20:23:47;;;;;;;5.50;5.00;;;;;;;23.71;45.44;100301.94;10416631;28;20206;-77
2021/06/27 20:28:51;;;;;;;6.45;5.82;;;;;;;23.60;45.63;100316.31;10406450;28;20821;-76
2021/06/27 20:33:55;;;;;;;6.07;5.47;;;;;;;23.38;46.36;100301.97;10393380;28;20278;-76
2021/06/27 20:38:58;;;;;;;6.00;5.30;;;;;;;23.32;46.46;100295.44;10391261;28;20217;-76
2021/06/27 20:44:02;;;;;;;6.50;5.57;;;;;;;23.25;46.25;100291.00;10388073;28;20194;-76
2021/06/27 20:49:07;;;;;;;6.07;5.47;;;;;;;23.19;46.37;100296.25;10416380;23;20234;-75
2021/06/27 20:54:10;;;;;;;6.50;5.82;;;;;;;23.14;46.99;100298.78;10387373;28;20673;-74
2021/06/27 20:59:14;;;;;;;6.10;5.47;;;;;;;23.11;47.06;100306.59;10412135;28;20213;-75
2021/06/27 21:04:17;;;;;;;5.63;5.13;;;;;;;23.05;47.05;100308.22;10384068;28;20207;-75
2021/06/27 21:09:20;;;;;;;5.70;5.20;;;;;;;22.95;47.18;100311.34;10395282;28;20214;-73
2021/06/27 21:14:24;;;;;;;6.15;5.25;;;;;;;22.77;47.54;100309.22;10400414;28;20205;-75
2021/06/27 21:19:27;;;;;;;6.07;5.47;;;;;;;22.72;47.65;100308.16;10401227;28;20248;-76
2021/06/27 21:24:30;;;;;;;7.28;6.25;;;;;;;22.61;48.33;100315.06;10394003;28;20679;-75
2021/06/27 21:29:37;;;;;;;6.80;5.15;;;;;;;22.50;48.49;100313.78;10394207;28;20218;-74
2021/06/27 21:34:39;;;;;;;5.72;5.22;;;;;;;22.54;47.95;100315.06;10394467;28;20540;-73
2021/06/27 21:39:42;;;;;;;7.38;5.40;;;;;;;22.47;48.53;100321.56;10394686;28;20209;-75
2021/06/27 21:44:47;;;;;;;6.10;4.78;;;;;;;22.14;49.50;100318.63;10393900;28;20187;-75
2021/06/27 21:49:51;;;;;;;5.85;5.22;;;;;;;21.94;49.91;100315.75;10393662;28;20566;-74
2021/06/27 21:54:54;;;;;;;6.18;5.60;;;;;;;21.71;50.57;100318.72;10393508;28;20190;-76
2021/06/27 21:59:58;;;;;;;7.65;5.25;;;;;;;21.50;51.58;100314.97;10393304;28;20584;-75
2021/06/27 22:05:01;;;;;;;6.18;5.57;;;;;;;21.29;52.50;100304.94;10392148;28;20651;-75
2021/06/27 22:10:05;;;;;;;6.85;5.70;;;;;;;21.47;52.36;100309.09;10392240;28;20221;-75
2021/06/27 22:15:10;;;;;;;7.13;5.00;;;;;;;21.69;51.55;100310.72;10391850;28;20693;-74
2021/06/27 22:20:15;;;;;;;4.85;4.43;;;;;;;21.87;50.99;100302.88;10391838;28;20285;-75
2021/06/27 22:25:18;;;;;;;6.25;4.97;;;;;;;22.02;51.10;100300.06;10391228;28;20209;-75
2021/06/27 22:30:24;;;;;;;5.55;5.00;;;;;;;21.97;51.50;100293.47;10391384;28;20545;-75
2021/06/27 22:35:27;;;;;;;5.88;5.28;;;;;;;21.89;52.29;100284.41;10405972;28;20206;-75
2021/06/27 22:40:30;;;;;;;6.07;5.47;;;;;;;21.79;52.78;100283.06;10391294;28;20211;-75
2021/06/27 22:45:35;;;;;;;6.75;6.05;;;;;;;21.72;52.67;100299.41;10390817;28;20202;-74
2021/06/27 22:50:38;;;;;;;5.97;5.38;;;;;;;21.57;53.09;100296.75;10390008;28;20231;-74
2021/06/27 22:55:42;;;;;;;5.97;5.35;;;;;;;21.57;53.25;100304.13;10390751;28;20686;-75
2021/06/27 23:00:46;;;;;;;6.07;5.40;;;;;;;21.47;53.56;100301.72;10390933;28;20211;-75
2021/06/27 23:05:49;;;;;;;6.38;5.50;;;;;;;21.31;53.71;100308.34;10389111;28;20202;-75
2021/06/27 23:10:52;;;;;;;6.20;5.55;;;;;;;21.43;53.74;100312.22;10390197;28;20223;-74